Time;durP1;ratioP1;P1;durP2;ratioP2;P2;SDS_P1;SDS_P2;PMS_P1;PMS_P2;Temp;Humidity;BMP_temperature;BMP_pressure;BME280_temperature;BME280_humidity;BME280_pressure;Samples;Min_cycle;Max_cycle;Signal;HPM_P1;HPM_P2
2022/06/06 00:00:48;;;;;;;6.47;5.60;;;;;;;16.60;82.95;99962.06;1630071;87;21073;-68
2022/06/06 00:03:17;;;;;;;6.08;5.53;;;;;;;16.63;82.97;99960.70;1630002;87;20970;-68
2022/06/06 00:05:47;;;;;;;9.58;5.72;;;;;;;16.63;83.01;99964.23;1633803;87;21168;-70
2022/06/06 00:08:16;;;;;;;6.65;6.05;;;;;;;16.57;82.95;99960.70;1633781;87;21574;-68
2022/06/06 00:10:46;;;;;;;7.00;6.40;;;;;;;16.55;82.85;99963.42;1634223;87;20994;-69
2022/06/06 00:13:14;;;;;;;7.50;6.30;;;;;;;16.54;82.79;99964.54;1633624;86;21122;-70
2022/06/06 00:15:41;;;;;;;6.75;6.15;;;;;;;16.50;82.90;99962.91;1630644;86;21053;-72
2022/06/06 00:18:08;;;;;;;7.72;6.62;;;;;;;16.46;83.12;99962.40;1633943;87;21243;-71
2022/06/06 00:20:37;;;;;;;7.00;6.40;;;;;;;16.37;82.98;99962.19;1592832;88;21139;-70
2022/06/06 00:23:05;;;;;;;31.17;11.03;;;;;;;16.37;82.69;99966.27;1560526;89;21493;-75
2022/06/06 00:25:32;;;;;;;6.72;5.85;;;;;;;16.31;82.67;99967.38;1579314;87;21107;-72
2022/06/06 00:27:59;;;;;;;6.85;6.25;;;;;;;16.24;82.67;99966.89;1603195;88;21563;-71
2022/06/06 00:30:27;;;;;;;7.28;5.30;;;;;;;16.25;82.75;99966.35;1607179;89;21226;-72
2022/06/06 00:35:38;;;;;;;6.65;6.03;;;;;;;16.14;83.04;99967.76;1604936;89;21077;-71
2022/06/06 00:38:05;;;;;;;6.75;6.22;;;;;;;16.12;82.97;99969.92;1607512;89;21028;-73
2022/06/06 00:40:32;;;;;;;6.97;6.47;;;;;;;16.04;83.35;99965.09;1608005;89;21162;-72
2022/06/06 00:42:59;;;;;;;5.97;5.35;;;;;;;16.04;83.39;99962.92;1607418;89;21132;-77
2022/06/06 00:45:37;;;;;;;6.37;5.78;;;;;;;16.01;83.03;99964.31;1591022;88;21599;-73
2022/06/06 00:48:38;;;;;;;5.95;5.47;;;;;;;16.04;82.62;99969.16;1600623;88;21694;-72
2022/06/06 00:51:13;;;;;;;7.10;6.40;;;;;;;16.05;82.35;99969.98;1603638;89;21625;-73
2022/06/06 00:53:48;;;;;;;6.97;6.40;;;;;;;15.97;82.05;99967.28;1659537;86;21538;-71
2022/06/06 00:56:23;;;;;;;6.85;5.60;;;;;;;15.93;81.89;99970.83;1645906;85;21375;-70
2022/06/06 00:58:53;;;;;;;6.40;5.90;;;;;;;15.91;81.48;99973.03;1631409;86;20951;-72
2022/06/06 01:01:21;;;;;;;8.38;6.22;;;;;;;15.90;81.72;99970.05;1653698;86;21010;-73
2022/06/06 01:03:49;;;;;;;5.78;5.35;;;;;;;15.90;81.27;99971.40;1659892;86;21065;-73
2022/06/06 01:06:18;;;;;;;6.58;6.08;;;;;;;15.89;81.05;99974.66;1659820;85;21051;-73
2022/06/06 01:08:46;;;;;;;6.35;5.83;;;;;;;15.82;80.73;99967.38;1634370;87;21839;-71
2022/06/06 01:11:14;;;;;;;6.97;6.25;;;;;;;15.79;80.69;99973.88;1604001;89;20973;-72
2022/06/06 01:13:41;;;;;;;5.35;4.95;;;;;;;15.80;80.48;99980.39;1607812;89;21032;-75
2022/06/06 01:16:32;;;;;;;6.35;5.80;;;;;;;15.78;79.80;99979.06;1591679;90;21098;-72
2022/06/06 01:19:24;;;;;;;5.72;5.33;;;;;;;15.79;79.76;99982.83;1629886;87;21592;-72
2022/06/06 01:22:13;;;;;;;7.67;5.92;;;;;;;15.80;79.19;99979.58;1569138;90;21803;-71
2022/06/06 01:25:14;;;;;;;6.05;5.62;;;;;;;15.81;78.70;99977.95;1565644;91;21090;-71
2022/06/06 01:28:04;;;;;;;7.83;5.47;;;;;;;15.77;78.77;99981.49;1574778;90;21084;-72
2022/06/06 01:30:43;;;;;;;7.30;5.05;;;;;;;15.71;78.31;99976.63;1591932;88;21035;-72
2022/06/06 01:33:12;;;;;;;5.20;4.87;;;;;;;15.69;78.38;99979.61;1601625;88;21095;-72
2022/06/06 01:35:43;;;;;;;5.37;4.97;;;;;;;15.70;78.17;99977.70;1616478;88;21156;-70
2022/06/06 01:38:12;;;;;;;6.40;5.80;;;;;;;15.64;77.83;99972.03;1615433;88;21058;-72
2022/06/06 01:40:59;;;;;;;5.60;5.15;;;;;;;15.65;77.80;99973.66;1590853;90;21697;-72
2022/06/06 01:43:52;;;;;;;7.55;5.95;;;;;;;15.66;77.34;99971.22;1585634;88;21631;-77
2022/06/06 01:46:22;;;;;;;6.00;5.22;;;;;;;15.61;77.69;99971.23;1578961;90;21537;-69
2022/06/06 01:48:49;;;;;;;5.75;5.35;;;;;;;15.59;77.80;99970.69;1636639;86;21367;-68
2022/06/06 01:51:20;;;;;;;6.12;5.72;;;;;;;15.57;77.68;99972.88;1640315;85;21033;-75
2022/06/06 01:53:47;;;;;;;6.58;5.97;;;;;;;15.54;77.68;99972.87;1630521;87;21077;-73
2022/06/06 01:56:17;;;;;;;5.90;5.45;;;;;;;15.54;77.57;99975.58;1632210;87;21144;-72
2022/06/06 01:58:44;;;;;;;5.30;4.90;;;;;;;15.52;77.87;99975.59;1631819;86;21058;-73
2022/06/06 02:01:11;;;;;;;5.60;5.00;;;;;;;15.52;77.50;99980.48;1634589;86;21153;-74
2022/06/06 02:03:38;;;;;;;5.17;4.78;;;;;;;15.45;77.37;99974.49;1633812;87;21010;-73
2022/06/06 02:06:06;;;;;;;8.83;5.60;;;;;;;15.44;77.04;99975.59;1633881;87;21132;-73
2022/06/06 02:08:32;;;;;;;5.87;4.67;;;;;;;15.40;77.04;99982.62;1616720;87;21561;-74
2022/06/06 02:10:59;;;;;;;10.85;5.30;;;;;;;15.38;76.82;99983.47;1561219;89;22262;-74
2022/06/06 02:13:27;;;;;;;5.45;4.87;;;;;;;15.38;76.78;99978.59;1607690;89;21509;-73
2022/06/06 02:15:54;;;;;;;5.55;4.95;;;;;;;15.37;76.61;99980.48;1606969;89;21068;-74
2022/06/06 02:18:22;;;;;;;5.10;4.70;;;;;;;15.37;76.09;99971.53;1606456;89;21096;-75
2022/06/06 02:20:49;;;;;;;6.12;5.17;;;;;;;15.37;75.48;99976.95;1610734;88;21528;-74
2022/06/06 02:23:15;;;;;;;4.87;4.30;;;;;;;15.38;75.64;99990.24;1606723;87;21048;-75
2022/06/06 02:25:42;;;;;;;5.25;4.83;;;;;;;15.37;75.85;99989.15;1617894;87;21050;-74
2022/06/06 02:28:09;;;;;;;5.42;5.03;;;;;;;15.36;76.23;99992.94;1628322;87;21088;-75
2022/06/06 02:30:37;;;;;;;5.58;5.15;;;;;;;15.33;76.46;99997.03;1617929;88;21021;-76
2022/06/06 02:33:05;;;;;;;5.67;5.20;;;;;;;15.32;76.64;99997.29;1619468;87;21579;-74
2022/06/06 02:35:36;;;;;;;5.87;5.33;;;;;;;15.26;77.18;100004.61;1622753;87;21069;-74
2022/06/06 02:38:03;;;;;;;5.37;4.97;;;;;;;15.20;77.30;100009.22;1641423;87;21247;-74
2022/06/06 02:40:33;;;;;;;5.60;5.03;;;;;;;15.16;77.62;100008.67;1593249;88;21573;-74
2022/06/06 02:42:59;;;;;;;6.25;5.62;;;;;;;15.13;76.60;100009.23;1626579;87;21007;-74
2022/06/06 02:45:27;;;;;;;5.55;5.03;;;;;;;15.14;76.92;100006.27;1618002;87;21020;-72
2022/06/06 02:47:56;;;;;;;5.60;5.20;;;;;;;15.15;76.32;99999.77;1617072;88;21070;-73
2022/06/06 02:50:27;;;;;;;5.10;4.70;;;;;;;15.20;76.27;100008.43;1615966;88;21375;-73
2022/06/06 02:52:54;;;;;;;4.97;4.65;;;;;;;15.17;75.86;100008.41;1637693;87;21100;-73
2022/06/06 02:55:21;;;;;;;8.60;5.83;;;;;;;15.24;75.69;100009.50;1645140;87;21085;-73
2022/06/06 02:57:51;;;;;;;5.35;4.95;;;;;;;15.27;75.47;100007.59;1605288;88;21104;-73
2022/06/06 03:00:23;;;;;;;4.92;4.42;;;;;;;15.27;75.31;100002.17;1618536;88;21008;-73
2022/06/06 03:02:49;;;;;;;7.90;4.42;;;;;;;15.31;74.56;100005.14;1625063;87;21105;-73
2022/06/06 03:05:16;;;;;;;5.17;4.78;;;;;;;15.39;74.50;100005.42;1618600;87;21048;-73
2022/06/06 03:08:30;;;;;;;5.75;4.40;;;;;;;15.44;73.80;100005.42;1617257;88;21116;-73
2022/06/06 03:11:30;;;;;;;6.45;4.10;;;;;;;15.49;73.04;100004.59;1618560;88;20996;-76
2022/06/06 03:14:30;;;;;;;4.37;3.80;;;;;;;15.55;71.92;100011.10;1631996;88;21051;-74
2022/06/06 03:20:46;;;;;;;4.47;4.10;;;;;;;15.66;70.67;100006.47;1612382;87;21037;-75
2022/06/06 03:23:41;;;;;;;5.17;4.33;;;;;;;15.70;70.21;100013.78;1628044;86;21043;-75
2022/06/06 03:26:16;;;;;;;5.20;4.47;;;;;;;15.78;69.20;100019.73;1632514;87;21503;-75
2022/06/06 03:29:18;;;;;;;4.30;3.83;;;;;;;15.84;68.85;100022.14;1632258;87;21014;-74
2022/06/06 03:32:08;;;;;;;4.12;3.72;;;;;;;15.90;69.11;100020.23;1593366;88;21280;-75
2022/06/06 03:34:40;;;;;;;4.72;4.33;;;;;;;15.95;67.83;100018.31;1627303;88;21109;-75
2022/06/06 03:37:18;;;;;;;5.50;4.60;;;;;;;16.01;67.69;100021.28;1628403;86;20987;-73
2022/06/06 03:40:09;;;;;;;4.03;3.72;;;;;;;16.05;67.59;100016.11;1631590;88;21519;-75
2022/06/06 03:42:57;;;;;;;4.58;4.20;;;;;;;16.10;67.54;100020.97;1643354;86;21614;-74
2022/06/06 03:45:43;;;;;;;8.48;5.00;;;;;;;16.10;67.01;100022.33;1647387;86;21824;-74
2022/06/06 03:48:35;;;;;;;30.40;24.57;;;;;;;16.15;67.20;100018.78;1612339;86;21046;-74
2022/06/06 03:51:22;;;;;;;5.62;4.95;;;;;;;16.20;66.92;100016.05;1659058;86;21014;-73
2022/06/06 03:54:01;;;;;;;4.55;4.15;;;;;;;16.24;66.59;100020.36;1629900;88;21133;-74
2022/06/06 03:56:46;;;;;;;6.25;3.92;;;;;;;16.29;65.91;100019.80;1645618;86;21066;-76
2022/06/06 03:59:13;;;;;;;6.12;4.42;;;;;;;16.35;65.30;100020.59;1605997;88;21387;-77
2022/06/06 04:01:41;;;;;;;4.37;3.60;;;;;;;16.40;64.55;100018.62;1629010;86;21735;-78
2022/06/06 04:04:08;;;;;;;4.37;3.60;;;;;;;16.45;64.46;100030.03;1632195;88;20954;-77
2022/06/06 04:06:36;;;;;;;4.10;3.80;;;;;;;16.51;64.43;100025.64;1632162;88;21069;-77
2022/06/06 04:09:03;;;;;;;8.30;4.72;;;;;;;16.56;64.64;100024.79;1631803;88;21117;-76
2022/06/06 04:11:40;;;;;;;4.53;4.08;;;;;;;16.61;64.77;100028.87;1623783;88;21135;-74
2022/06/06 04:14:31;;;;;;;4.15;3.83;;;;;;;16.67;64.60;100029.66;1649634;86;21055;-77
2022/06/06 04:17:13;;;;;;;3.92;3.62;;;;;;;16.72;64.57;100033.16;1631233;86;20971;-77
2022/06/06 04:20:04;;;;;;;5.80;3.80;;;;;;;16.79;64.16;100026.02;1591555;88;21121;-75
2022/06/06 04:22:57;;;;;;;4.95;4.55;;;;;;;16.86;63.60;100026.53;1638534;87;21077;-75
2022/06/06 04:25:55;;;;;;;5.00;4.10;;;;;;;16.91;63.78;100025.14;1639369;87;21228;-76
2022/06/06 04:28:45;;;;;;;11.55;4.37;;;;;;;16.98;63.73;100029.14;1639385;87;21105;-76
2022/06/06 04:31:32;;;;;;;14.40;4.28;;;;;;;17.07;63.73;100028.55;1639329;86;21034;-74
2022/06/06 04:34:27;;;;;;;4.00;3.70;;;;;;;17.13;63.42;100027.39;1606097;87;21151;-76
2022/06/06 04:37:20;;;;;;;6.70;3.55;;;;;;;17.20;62.82;100031.97;1633666;86;21093;-76
2022/06/06 04:40:35;;;;;;;4.10;3.80;;;;;;;17.27;62.74;100029.72;1645320;86;21700;-76
2022/06/06 04:43:04;;;;;;;5.10;3.92;;;;;;;17.36;62.58;100029.39;1659611;85;21536;-76
2022/06/06 04:45:42;;;;;;;8.35;4.10;;;;;;;17.42;62.28;100035.84;1633850;86;20939;-76
2022/06/06 04:48:09;;;;;;;4.55;4.15;;;;;;;17.48;62.21;100035.25;1626366;87;20974;-72
2022/06/06 04:50:36;;;;;;;5.33;3.92;;;;;;;17.55;62.27;100042.53;1632955;87;20926;-74
2022/06/06 04:53:13;;;;;;;6.60;4.00;;;;;;;17.61;62.18;100043.30;1590384;88;21075;-74
2022/06/06 04:55:41;;;;;;;4.62;4.05;;;;;;;17.67;62.20;100049.77;1617268;87;20989;-77
2022/06/06 04:58:08;;;;;;;5.97;3.90;;;;;;;17.73;61.81;100044.55;1614296;88;21521;-75
2022/06/06 05:00:38;;;;;;;9.00;4.00;;;;;;;17.79;61.67;100036.57;1633497;87;21130;-74
2022/06/06 05:03:04;;;;;;;3.40;3.10;;;;;;;17.84;61.02;100037.88;1634365;87;21565;-73
2022/06/06 05:06:26;;;;;;;4.08;3.70;;;;;;;17.92;60.66;100041.08;1634457;87;21166;-73
2022/06/06 05:09:26;;;;;;;3.55;3.12;;;;;;;17.98;60.42;100036.66;1606766;89;21011;-74
2022/06/06 05:12:48;;;;;;;4.25;3.20;;;;;;;18.07;60.05;100040.91;1603365;89;21529;-75
2022/06/06 05:15:56;;;;;;;4.28;3.87;;;;;;;18.14;59.93;100039.98;1615460;87;21080;-75
2022/06/06 05:18:31;;;;;;;5.40;4.17;;;;;;;18.23;59.52;100045.05;1518592;93;21576;-74
2022/06/06 05:21:03;;;;;;;4.35;3.08;;;;;;;18.30;59.70;100042.24;1496489;93;22586;-73
2022/06/06 05:23:57;;;;;;;5.87;3.35;;;;;;;18.36;59.43;100041.63;1566263;89;21012;-74
2022/06/06 05:26:58;;;;;;;3.87;3.35;;;;;;;18.43;59.49;100048.88;1607621;89;21577;-74
2022/06/06 05:29:53;;;;;;;3.00;2.80;;;;;;;18.49;58.91;100053.70;1566399;91;21161;-74
2022/06/06 05:32:49;;;;;;;5.00;3.35;;;;;;;18.54;58.28;100046.86;1566990;91;21467;-76
2022/06/06 05:35:49;;;;;;;2.87;2.67;;;;;;;18.61;58.53;100050.83;1588579;88;21129;-75
2022/06/06 05:38:33;;;;;;;3.17;2.87;;;;;;;18.69;58.05;100055.64;1608038;87;21085;-75
2022/06/06 05:41:35;;;;;;;3.37;2.92;;;;;;;18.77;58.32;100057.42;1607956;89;21059;-76
2022/06/06 05:44:13;;;;;;;4.58;2.50;;;;;;;18.84;57.44;100063.33;1583280;90;21135;-76
2022/06/06 05:46:58;;;;;;;3.50;2.55;;;;;;;18.90;56.99;100062.94;1607408;89;21088;-76
2022/06/06 05:49:39;;;;;;;3.72;2.95;;;;;;;18.96;56.98;100065.86;1608727;88;23360;-76
2022/06/06 05:52:38;;;;;;;4.15;3.40;;;;;;;19.01;57.23;100067.14;1605228;89;21017;-79
2022/06/06 05:55:42;;;;;;;3.40;3.10;;;;;;;19.08;57.44;100079.86;1601151;87;21044;-78
2022/06/06 05:58:40;;;;;;;10.78;3.58;;;;;;;19.15;57.50;100072.10;1582808;90;21168;-77
2022/06/06 06:01:54;;;;;;;3.02;2.30;;;;;;;19.21;56.69;100079.66;1583577;90;21070;-75
2022/06/06 06:04:52;;;;;;;3.62;3.25;;;;;;;19.27;56.29;100074.93;1567754;88;21808;-78
2022/06/06 06:07:40;;;;;;;4.15;3.15;;;;;;;19.34;55.97;100078.07;1578783;90;21535;-76
2022/06/06 06:10:14;;;;;;;4.95;2.87;;;;;;;19.40;55.31;100079.06;1604566;88;21029;-77
2022/06/06 06:13:01;;;;;;;4.08;2.80;;;;;;;19.44;54.84;100074.66;1608345;89;21132;-76
2022/06/06 06:15:38;;;;;;;2.50;2.30;;;;;;;19.50;54.20;100076.74;1618912;87;21013;-77
2022/06/06 06:18:15;;;;;;;3.72;2.50;;;;;;;19.55;53.84;100079.39;1634327;87;21140;-76
2022/06/06 06:20:51;;;;;;;2.40;2.20;;;;;;;19.60;53.54;100076.57;1615258;87;21021;-75
2022/06/06 06:23:21;;;;;;;4.05;3.72;;;;;;;19.65;52.82;100075.13;1609284;88;21091;-76
2022/06/06 06:25:48;;;;;;;5.65;2.05;;;;;;;19.70;52.72;100079.12;1607525;88;21047;-75
2022/06/06 06:28:15;;;;;;;2.37;2.17;;;;;;;19.74;52.67;100080.13;1619848;88;21107;-76
2022/06/06 06:31:14;;;;;;;5.40;2.10;;;;;;;19.78;52.31;100079.78;1620125;88;21108;-78
2022/06/06 06:34:28;;;;;;;2.33;2.12;;;;;;;19.84;52.47;100087.33;1620233;88;21119;-76
2022/06/06 06:37:23;;;;;;;2.20;2.10;;;;;;;19.91;51.13;100085.81;1596685;88;21123;-76
2022/06/06 06:40:15;;;;;;;2.85;2.52;;;;;;;19.98;50.68;100088.16;1593929;90;21603;-77
2022/06/06 06:43:10;;;;;;;2.60;2.40;;;;;;;20.03;50.23;100093.52;1592743;90;21021;-75
2022/06/06 06:45:47;;;;;;;2.62;2.42;;;;;;;20.06;49.87;100090.73;1611416;87;21282;-76
2022/06/06 06:48:34;;;;;;;2.00;1.85;;;;;;;20.10;49.17;100090.37;1620872;88;21040;-77
2022/06/06 06:51:24;;;;;;;2.58;2.25;;;;;;;20.14;49.48;100091.41;1620728;87;20957;-77
2022/06/06 06:54:08;;;;;;;4.05;2.08;;;;;;;20.17;49.22;100088.05;1620466;88;21517;-75
2022/06/06 06:57:09;;;;;;;3.58;3.20;;;;;;;20.23;49.28;100093.68;1642427;87;21076;-79
2022/06/06 07:00:00;;;;;;;5.50;2.40;;;;;;;20.28;49.78;100094.39;1600176;88;21102;-77
2022/06/06 07:09:19;;;;;;;2.92;1.95;;;;;;;20.44;48.18;100092.98;1603959;88;21013;-75
2022/06/06 07:12:22;;;;;;;4.37;2.08;;;;;;;20.52;48.55;100092.02;1603631;89;21551;-74
2022/06/06 07:15:18;;;;;;;3.10;2.30;;;;;;;20.59;48.74;100101.41;1589610;88;22885;-74
2022/06/06 07:17:51;;;;;;;7.08;2.58;;;;;;;20.64;48.78;100099.94;1624969;88;21072;-78
2022/06/06 07:20:19;;;;;;;2.83;2.35;;;;;;;20.72;47.36;100099.20;1597915;88;21003;-75
2022/06/06 07:23:02;;;;;;;2.33;2.12;;;;;;;20.83;46.54;100086.12;1598240;88;21039;-74
2022/06/06 07:25:45;;;;;;;2.92;2.72;;;;;;;20.83;46.54;100086.12;1631785;86;26587;-74
2022/06/06 07:28:18;;;;;;;4.85;2.77;;;;;;;20.92;46.97;100088.92;1629379;86;21775;-72
2022/06/06 07:31:13;;;;;;;6.78;2.15;;;;;;;20.97;47.10;100090.18;1612423;86;21141;-75
2022/06/06 07:34:07;;;;;;;3.17;2.87;;;;;;;21.11;45.71;100095.05;1636272;86;21480;-74
2022/06/06 07:36:44;;;;;;;;;;;;;;;21.11;45.71;100095.05;1661186;86;21106;-77
2022/06/06 07:39:24;;;;;;;4.08;3.42;;;;;;;21.16;46.29;100103.16;1628066;88;20265;-76
2022/06/06 07:42:21;;;;;;;3.35;2.45;;;;;;;21.19;45.70;100101.20;1626913;88;21269;-77
2022/06/06 07:44:57;;;;;;;8.95;2.35;;;;;;;21.26;45.47;100104.29;1628120;86;21086;-75
2022/06/06 07:47:54;;;;;;;2.50;2.30;;;;;;;21.34;44.32;100099.47;1622038;88;21092;-77
2022/06/06 07:50:28;;;;;;;2.50;2.30;;;;;;;21.42;44.58;100100.08;1650133;86;21011;-77
2022/06/06 07:53:24;;;;;;;3.37;2.70;;;;;;;21.51;43.64;100098.20;1648216;86;21126;-76
2022/06/06 07:56:04;;;;;;;2.08;1.90;;;;;;;21.57;43.28;100097.52;1630486;88;21187;-79
2022/06/06 07:58:46;;;;;;;4.97;2.37;;;;;;;21.62;43.51;100098.75;1631033;86;21022;-78
2022/06/06 08:01:21;;;;;;;2.65;2.45;;;;;;;21.67;43.77;100097.27;1652655;86;21525;-80
2022/06/06 08:04:32;;;;;;;2.35;2.15;;;;;;;21.72;43.78;100098.50;1629536;88;21055;-75
2022/06/06 08:07:19;;;;;;;2.27;1.98;;;;;;;21.78;43.42;100095.04;1632041;88;21123;-75
2022/06/06 08:10:06;;;;;;;6.30;2.55;;;;;;;21.81;42.54;100087.59;1641988;86;22715;-73
2022/06/06 08:12:51;;;;;;;2.30;2.15;;;;;;;21.82;41.72;100092.76;1633737;86;21548;-73
2022/06/06 08:15:36;;;;;;;2.80;2.42;;;;;;;21.86;41.37;100090.19;1604415;88;20943;-73
2022/06/06 08:18:24;;;;;;;4.42;2.70;;;;;;;21.87;41.91;100083.00;1569506;88;21074;-76
2022/06/06 08:21:08;;;;;;;3.15;2.95;;;;;;;21.91;41.59;100083.20;1589084;88;21238;-76
2022/06/06 08:23:35;;;;;;;2.30;2.10;;;;;;;21.95;41.66;100086.40;1633724;87;21718;-75
2022/06/06 08:26:03;;;;;;;2.55;2.35;;;;;;;21.99;42.01;100078.34;1639092;86;21024;-75
2022/06/06 08:28:33;;;;;;;2.20;2.00;;;;;;;22.03;42.24;100078.77;1639299;87;21002;-75
2022/06/06 08:31:00;;;;;;;5.67;2.25;;;;;;;22.08;41.48;100086.85;1607869;87;21175;-74
2022/06/06 08:33:27;;;;;;;2.40;1.92;;;;;;;22.12;41.19;100088.39;1591669;90;21146;-73
2022/06/06 08:36:22;;;;;;;3.22;2.62;;;;;;;22.17;41.16;100079.47;1608681;88;21228;-74
2022/06/06 08:39:13;;;;;;;2.42;2.22;;;;;;;22.26;40.80;100091.02;1587069;87;21107;-73
2022/06/06 08:42:11;;;;;;;2.17;1.77;;;;;;;22.28;41.10;100082.73;1595966;87;21055;-75
2022/06/06 08:45:11;;;;;;;5.28;2.58;;;;;;;22.36;41.11;100077.02;1596208;87;21581;-75
2022/06/06 08:48:17;;;;;;;3.15;2.37;;;;;;;22.43;40.93;100078.74;1590669;88;21115;-74
2022/06/06 08:51:01;;;;;;;4.50;2.00;;;;;;;22.54;41.25;100078.70;1591449;90;21112;-73
2022/06/06 08:54:07;;;;;;;4.25;2.02;;;;;;;22.61;40.33;100080.39;1566900;91;21048;-74
2022/06/06 08:57:10;;;;;;;3.25;2.35;;;;;;;22.70;40.00;100074.91;1566887;91;21070;-74
2022/06/06 09:00:07;;;;;;;3.35;2.08;;;;;;;22.74;39.70;100080.83;1582071;88;21112;-75
2022/06/06 09:03:20;;;;;;;2.22;2.05;;;;;;;22.76;39.81;100080.52;1589173;89;21783;-76
2022/06/06 09:06:10;;;;;;;1.77;1.67;;;;;;;22.78;39.64;100082.39;1589144;90;22219;-80
2022/06/06 09:09:20;;;;;;;2.40;2.20;;;;;;;22.78;39.17;100079.06;1566872;88;21550;-76
2022/06/06 09:12:29;;;;;;;2.65;1.90;;;;;;;22.77;39.15;100071.17;1591567;90;21118;-77
2022/06/06 09:15:23;;;;;;;2.33;1.52;;;;;;;22.86;39.41;100082.95;1590924;88;21031;-74
2022/06/06 09:18:21;;;;;;;3.02;2.10;;;;;;;23.03;38.94;100070.60;1606535;89;21106;-81
2022/06/06 09:21:06;;;;;;;4.42;1.67;;;;;;;23.19;38.51;100068.98;1588875;88;21271;-77
2022/06/06 09:23:56;;;;;;;4.67;1.85;;;;;;;23.30;37.96;100068.09;1618034;86;21420;-85
2022/06/06 09:26:30;;;;;;;2.02;1.92;;;;;;;23.39;38.10;100078.49;1647181;87;21135;-78
2022/06/06 09:29:17;;;;;;;3.17;1.77;;;;;;;23.44;38.15;100072.30;1631691;87;21096;-79
2022/06/06 09:32:18;;;;;;;4.42;2.72;;;;;;;23.51;37.67;100070.41;1624621;87;21294;-78
2022/06/06 09:34:53;;;;;;;2.05;1.95;;;;;;;23.57;37.25;100069.12;1646108;87;21246;-79
2022/06/06 09:38:04;;;;;;;1.82;1.72;;;;;;;23.60;37.34;100073.94;1626350;87;21098;-79
2022/06/06 09:40:58;;;;;;;4.95;1.92;;;;;;;23.64;37.06;100067.25;1632273;87;21090;-74
2022/06/06 09:43:48;;;;;;;1.92;1.80;;;;;;;23.68;37.53;100073.14;1572836;88;21135;-73
2022/06/06 09:46:35;;;;;;;2.25;2.05;;;;;;;23.72;36.35;100070.53;1550573;91;21113;-76
2022/06/06 09:49:31;;;;;;;3.05;2.05;;;;;;;23.66;36.54;100067.15;1585520;87;21512;-74
2022/06/06 09:52:13;;;;;;;11.43;2.50;;;;;;;23.72;36.61;100063.10;1633415;86;21008;-76
2022/06/06 10:01:02;;;;;;;5.12;2.02;;;;;;;24.07;36.12;100074.77;1611621;88;21021;-76
2022/06/06 10:03:49;;;;;;;2.55;2.27;;;;;;;24.22;35.65;100072.07;1641845;86;21909;-75
2022/06/06 10:06:36;;;;;;;3.75;2.02;;;;;;;24.35;36.99;100082.59;1647250;87;21009;-77
2022/06/06 10:09:44;;;;;;;3.75;2.20;;;;;;;24.43;37.23;100078.41;1642236;87;21012;-78
2022/06/06 10:12:53;;;;;;;4.33;1.82;;;;;;;24.47;36.29;100067.53;1606765;89;21081;-76
2022/06/06 10:15:31;;;;;;;2.05;1.80;;;;;;;24.37;35.18;100071.48;1595771;88;21152;-78
2022/06/06 10:18:18;;;;;;;2.55;1.85;;;;;;;24.27;34.94;100067.16;1576720;90;21286;-74
2022/06/06 10:21:15;;;;;;;4.42;1.90;;;;;;;24.34;34.85;100069.41;1612676;88;20999;-76
2022/06/06 10:23:50;;;;;;;10.40;2.10;;;;;;;24.42;35.60;100074.03;1595661;87;20956;-76
2022/06/06 10:26:25;;;;;;;3.98;1.72;;;;;;;24.47;35.34;100064.78;1599448;88;21059;-75
2022/06/06 10:29:24;;;;;;;2.60;1.62;;;;;;;24.45;35.30;100067.08;1560818;91;21025;-74
2022/06/06 10:32:03;;;;;;;3.02;2.00;;;;;;;24.48;34.51;100074.66;1641818;87;21610;-75
2022/06/06 10:35:06;;;;;;;5.78;2.42;;;;;;;24.41;34.67;100068.33;1648010;87;21109;-77
2022/06/06 10:37:48;;;;;;;2.35;1.90;;;;;;;24.47;34.83;100056.54;1618405;88;21553;-78
2022/06/06 10:40:51;;;;;;;1.45;1.35;;;;;;;24.66;34.55;100054.14;1617186;87;21123;-78
2022/06/06 10:44:10;;;;;;;1.82;1.60;;;;;;;24.72;34.04;100046.74;1621907;87;21104;-77
2022/06/06 10:47:08;;;;;;;3.37;1.65;;;;;;;24.72;34.66;100048.69;1569024;91;21155;-74
2022/06/06 10:49:57;;;;;;;1.82;1.52;;;;;;;24.68;34.70;100045.00;1571242;88;21070;-75
2022/06/06 10:52:59;;;;;;;1.67;1.55;;;;;;;24.56;35.38;100051.22;1649567;86;21070;-74
2022/06/06 10:55:38;;;;;;;3.00;2.47;;;;;;;24.51;35.01;100051.41;1619462;86;21551;-75
2022/06/06 10:58:22;;;;;;;2.30;1.60;;;;;;;24.46;35.29;100047.48;1606011;89;21139;-73
2022/06/06 11:01:39;;;;;;;1.70;1.60;;;;;;;24.55;35.03;100035.88;1609207;88;22624;-75
2022/06/06 11:04:31;;;;;;;1.70;1.60;;;;;;;24.66;35.41;100033.52;1627788;88;21025;-81
2022/06/06 11:07:38;;;;;;;8.40;2.02;;;;;;;24.81;34.53;100039.79;1615161;88;20962;-83
2022/06/06 11:10:23;;;;;;;3.65;1.90;;;;;;;24.92;34.83;100027.27;1630464;86;21078;-85
2022/06/06 11:13:11;;;;;;;2.95;1.85;;;;;;;25.04;34.58;100030.63;1630634;88;21094;-81
2022/06/06 11:15:41;;;;;;;1.85;1.75;;;;;;;25.08;34.21;100023.34;1630488;87;21141;-80
2022/06/06 11:18:29;;;;;;;5.08;1.65;;;;;;;25.16;33.77;100025.19;1658121;86;21079;-75
2022/06/06 11:21:34;;;;;;;4.42;1.77;;;;;;;25.18;34.15;100022.31;1646396;86;21606;-73
2022/06/06 11:24:13;;;;;;;6.50;5.83;;;;;;;25.33;34.29;100021.44;1632183;86;21062;-74
2022/06/06 11:27:09;;;;;;;4.15;1.95;;;;;;;25.39;34.38;100022.84;1640300;86;21117;-76
2022/06/06 11:30:17;;;;;;;1.87;1.77;;;;;;;25.32;34.66;100028.12;1621857;88;21933;-74
2022/06/06 11:33:31;;;;;;;2.40;2.17;;;;;;;25.24;34.82;100022.11;1628187;86;21054;-76
2022/06/06 11:36:43;;;;;;;2.17;2.08;;;;;;;25.15;34.90;100025.76;1625845;86;21048;-76
2022/06/06 11:39:35;;;;;;;2.35;1.80;;;;;;;25.26;34.93;100026.72;1591454;89;21597;-74
2022/06/06 11:42:33;;;;;;;3.80;1.62;;;;;;;25.33;34.39;100015.94;1578698;88;21076;-77
2022/06/06 11:45:47;;;;;;;5.55;2.10;;;;;;;25.33;34.35;100012.61;1658871;86;21954;-77
2022/06/06 11:48:40;;;;;;;;;;;;;;;25.24;34.44;100011.91;1627730;87;21322;-77
2022/06/06 11:51:38;;;;;;;3.40;2.30;;;;;;;25.20;33.78;100009.59;1650887;86;20227;-71
2022/06/06 11:54:28;;;;;;;5.10;2.98;;;;;;;25.18;33.85;100001.67;1634140;87;21109;-71
2022/06/06 11:57:15;;;;;;;2.47;2.27;;;;;;;25.19;33.89;100004.66;1642132;86;21031;-74
2022/06/06 12:00:11;;;;;;;4.00;2.05;;;;;;;25.36;33.78;100004.26;1626738;88;21261;-70
2022/06/06 12:03:12;;;;;;;2.00;1.42;;;;;;;25.47;33.85;99991.06;1626853;88;21090;-73
2022/06/06 12:06:15;;;;;;;2.55;1.80;;;;;;;25.41;34.00;99999.34;1628009;88;21049;-72
2022/06/06 12:09:10;;;;;;;3.22;2.05;;;;;;;25.29;34.76;100009.50;1632045;88;20950;-71
2022/06/06 12:11:43;;;;;;;;;;;;;;;25.24;34.40;100000.89;1601449;88;21046;-74
2022/06/06 12:14:47;;;;;;;6.28;4.65;;;;;;;25.21;34.41;100007.66;1608198;86;21879;-75
2022/06/06 12:18:03;;;;;;;2.15;2.05;;;;;;;25.19;34.36;100006.03;1616057;88;21106;-73
2022/06/06 12:21:11;;;;;;;2.27;1.87;;;;;;;25.28;34.22;100002.38;1625982;88;20981;-71
2022/06/06 12:24:33;;;;;;;1.77;1.67;;;;;;;25.55;33.81;100001.23;1627003;88;21571;-70
2022/06/06 12:27:26;;;;;;;4.33;1.98;;;;;;;25.84;32.87;100002.18;1627050;86;21101;-74
2022/06/06 12:30:10;;;;;;;2.70;2.47;;;;;;;26.00;32.89;100002.51;1626889;88;21407;-74
2022/06/06 12:32:48;;;;;;;4.08;2.22;;;;;;;26.16;33.08;99999.86;1631473;88;21540;-72
2022/06/06 12:35:29;;;;;;;2.33;2.08;;;;;;;26.42;32.87;99998.95;1631833;88;21083;-76
2022/06/06 12:38:11;;;;;;;6.55;2.20;;;;;;;26.55;32.38;99990.63;1626865;88;21037;-74
2022/06/06 12:40:49;;;;;;;2.45;1.95;;;;;;;26.59;32.26;99990.16;1630558;86;21532;-74
2022/06/06 12:43:36;;;;;;;4.65;2.20;;;;;;;26.67;31.97;99990.02;1630344;88;21385;-74
2022/06/06 12:46:43;;;;;;;4.10;2.50;;;;;;;26.75;31.67;99988.28;1630382;88;21007;-71
2022/06/06 12:49:33;;;;;;;1.98;1.87;;;;;;;26.86;31.71;99989.39;1605796;89;21538;-73
2022/06/06 12:52:12;;;;;;;2.95;1.92;;;;;;;26.92;31.13;99987.19;1632177;88;21045;-70
2022/06/06 12:58:32;;;;;;;2.40;1.95;;;;;;;26.55;31.70;99984.54;1539600;91;22172;-74
2022/06/06 13:04:42;;;;;;;6.25;2.37;;;;;;;26.19;33.17;99980.43;1632642;87;21034;-81
2022/06/06 13:07:20;;;;;;;2.35;1.77;;;;;;;26.28;33.18;99984.70;1632201;87;21063;-77
2022/06/06 13:10:28;;;;;;;10.00;2.22;;;;;;;26.23;33.16;99978.64;1630347;86;21030;-80
2022/06/06 13:13:26;;;;;;;5.25;2.20;;;;;;;26.00;33.61;99974.14;1630509;88;21116;-75